sensor_id;sensor_type;location;lat;lon;timestamp;pressure;altitude;pressure_sealevel;temperature;humidity
69214;BME280;56325;47.030;18.518;2023-04-24T00:01:56;99634.03;;;14.96;67.49
69214;BME280;56325;47.030;18.518;2023-04-24T00:04:32;99621.94;;;14.99;67.91
69214;BME280;56325;47.030;18.518;2023-04-24T00:07:07;99614.16;;;14.87;69.56
69214;BME280;56325;47.030;18.518;2023-04-24T00:09:42;99624.22;;;14.73;71.14
69214;BME280;56325;47.030;18.518;2023-04-24T00:12:17;99621.44;;;14.84;70.39
69214;BME280;56325;47.030;18.518;2023-04-24T00:14:52;99627.22;;;14.81;70.77
69214;BME280;56325;47.030;18.518;2023-04-24T00:17:26;99622.44;;;14.87;70.27
69214;BME280;56325;47.030;18.518;2023-04-24T00:20:01;99620.44;;;14.76;70.24
69214;BME280;56325;47.030;18.518;2023-04-24T00:22:38;99621.44;;;14.84;69.79
69214;BME280;56325;47.030;18.518;2023-04-24T00:25:13;99620.44;;;14.82;70.34
69214;BME280;56325;47.030;18.518;2023-04-24T00:27:47;99622.69;;;14.83;69.53
69214;BME280;56325;47.030;18.518;2023-04-24T00:30:22;99616.91;;;14.81;69.25
69214;BME280;56325;47.030;18.518;2023-04-24T00:32:57;99614.41;;;14.83;68.25
69214;BME280;56325;47.030;18.518;2023-04-24T00:35:32;99617.66;;;14.98;68.04
69214;BME280;56325;47.030;18.518;2023-04-24T00:38:08;99608.59;;;14.98;66.16
69214;BME280;56325;47.030;18.518;2023-04-24T00:40:42;99607.09;;;14.86;65.41
69214;BME280;56325;47.030;18.518;2023-04-24T00:43:17;99611.38;;;14.81;64.46
69214;BME280;56325;47.030;18.518;2023-04-24T00:45:52;99605.09;;;14.75;64.40
69214;BME280;56325;47.030;18.518;2023-04-24T00:48:27;99603.09;;;14.70;63.48
69214;BME280;56325;47.030;18.518;2023-04-24T00:51:02;99593.53;;;14.60;62.71
69214;BME280;56325;47.030;18.518;2023-04-24T00:53:38;99593.53;;;14.71;62.10
69214;BME280;56325;47.030;18.518;2023-04-24T00:56:13;99585.47;;;14.67;61.24
69214;BME280;56325;47.030;18.518;2023-04-24T00:58:48;99577.19;;;14.73;61.25
69214;BME280;56325;47.030;18.518;2023-04-24T01:01:23;99575.66;;;14.72;60.78
69214;BME280;56325;47.030;18.518;2023-04-24T01:03:58;99565.06;;;14.76;61.92
69214;BME280;56325;47.030;18.518;2023-04-24T01:06:33;99567.84;;;14.76;61.61
69214;BME280;56325;47.030;18.518;2023-04-24T01:09:10;99562.81;;;14.80;60.88
69214;BME280;56325;47.030;18.518;2023-04-24T01:11:46;99558.28;;;14.77;60.76
69214;BME280;56325;47.030;18.518;2023-04-24T01:14:21;99555.50;;;14.77;60.76
69214;BME280;56325;47.030;18.518;2023-04-24T01:16:55;99544.94;;;14.81;61.19
69214;BME280;56325;47.030;18.518;2023-04-24T01:19:30;99549.22;;;14.76;62.04
69214;BME280;56325;47.030;18.518;2023-04-24T01:22:10;99541.44;;;14.75;61.19
69214;BME280;56325;47.030;18.518;2023-04-24T01:24:45;99531.16;;;14.70;61.10
69214;BME280;56325;47.030;18.518;2023-04-24T01:27:20;99530.38;;;14.69;61.34
69214;BME280;56325;47.030;18.518;2023-04-24T01:29:55;99533.16;;;14.64;61.10
69214;BME280;56325;47.030;18.518;2023-04-24T01:32:30;99538.44;;;14.62;60.97
69214;BME280;56325;47.030;18.518;2023-04-24T01:35:06;99534.38;;;14.74;60.82
69214;BME280;56325;47.030;18.518;2023-04-24T01:37:43;99535.13;;;14.74;59.92
69214;BME280;56325;47.030;18.518;2023-04-24T01:40:17;99530.38;;;14.64;60.03
69214;BME280;56325;47.030;18.518;2023-04-24T01:42:52;99532.62;;;14.76;60.45
69214;BME280;56325;47.030;18.518;2023-04-24T01:45:27;99532.91;;;14.73;60.74
69214;BME280;56325;47.030;18.518;2023-04-24T01:48:02;99547.25;;;14.66;60.79
69214;BME280;56325;47.030;18.518;2023-04-24T01:50:37;99543.69;;;14.88;60.00
69214;BME280;56325;47.030;18.518;2023-04-24T01:53:13;99554.00;;;14.76;60.63
69214;BME280;56325;47.030;18.518;2023-04-24T01:55:47;99547.47;;;14.79;60.73
69214;BME280;56325;47.030;18.518;2023-04-24T01:58:22;99553.75;;;14.74;61.66
69214;BME280;56325;47.030;18.518;2023-04-24T02:00:58;99557.06;;;14.72;60.71
69214;BME280;56325;47.030;18.518;2023-04-24T02:03:33;99542.97;;;14.59;61.30
69214;BME280;56325;47.030;18.518;2023-04-24T02:06:08;99553.03;;;14.68;61.30
69214;BME280;56325;47.030;18.518;2023-04-24T02:08:44;99549.50;;;14.67;62.35
69214;BME280;56325;47.030;18.518;2023-04-24T02:11:18;99541.97;;;14.68;61.06
69214;BME280;56325;47.030;18.518;2023-04-24T02:13:53;99548.50;;;14.54;61.48
69214;BME280;56325;47.030;18.518;2023-04-24T02:16:28;99543.97;;;14.62;61.68
69214;BME280;56325;47.030;18.518;2023-04-24T02:19:06;99536.44;;;14.57;61.30
69214;BME280;56325;47.030;18.518;2023-04-24T02:21:40;99524.84;;;14.64;61.15
69214;BME280;56325;47.030;18.518;2023-04-24T02:24:16;99530.59;;;14.38;61.29
69214;BME280;56325;47.030;18.518;2023-04-24T02:26:50;99531.34;;;14.38;62.17
69214;BME280;56325;47.030;18.518;2023-04-24T02:29:25;99524.56;;;14.39;62.41
69214;BME280;56325;47.030;18.518;2023-04-24T02:31:59;99507.75;;;14.49;61.80
69214;BME280;56325;47.030;18.518;2023-04-24T02:34:34;99508.75;;;14.46;62.79
69214;BME280;56325;47.030;18.518;2023-04-24T02:37:09;99509.00;;;14.59;62.05
69214;BME280;56325;47.030;18.518;2023-04-24T02:39:45;99510.78;;;14.51;61.90
69214;BME280;56325;47.030;18.518;2023-04-24T02:42:19;99500.22;;;14.49;62.08
69214;BME280;56325;47.030;18.518;2023-04-24T02:44:54;99487.12;;;14.55;62.46
69214;BME280;56325;47.030;18.518;2023-04-24T02:47:28;99492.91;;;14.46;62.73
69214;BME280;56325;47.030;18.518;2023-04-24T02:50:06;99494.62;;;14.21;63.00
69214;BME280;56325;47.030;18.518;2023-04-24T02:52:41;99498.16;;;14.38;62.44
69214;BME280;56325;47.030;18.518;2023-04-24T02:55:17;99494.91;;;14.34;62.96
69214;BME280;56325;47.030;18.518;2023-04-24T02:57:52;99489.63;;;14.25;63.55
69214;BME280;56325;47.030;18.518;2023-04-24T03:00:27;99491.88;;;14.21;64.13
69214;BME280;56325;47.030;18.518;2023-04-24T04:06:17;99477.47;;;15.06;66.16
69214;BME280;56325;47.030;18.518;2023-04-24T04:08:53;99477.47;;;15.06;66.16
69214;BME280;56325;47.030;18.518;2023-04-24T04:11:27;99477.84;;;14.41;67.50
69214;BME280;56325;47.030;18.518;2023-04-24T04:14:03;99479.31;;;14.20;68.49
69214;BME280;56325;47.030;18.518;2023-04-24T04:16:38;99480.56;;;14.14;68.88
69214;BME280;56325;47.030;18.518;2023-04-24T04:19:13;99467.97;;;14.01;69.32
69214;BME280;56325;47.030;18.518;2023-04-24T04:21:49;99474.25;;;14.07;69.56
69214;BME280;56325;47.030;18.518;2023-04-24T04:24:28;99475.28;;;14.16;69.62
69214;BME280;56325;47.030;18.518;2023-04-24T04:27:03;99470.00;;;14.23;68.96
69214;BME280;56325;47.030;18.518;2023-04-24T04:29:39;99473.25;;;14.10;69.35
69214;BME280;56325;47.030;18.518;2023-04-24T04:32:16;99467.97;;;14.01;69.67
69214;BME280;56325;47.030;18.518;2023-04-24T04:34:50;99472.25;;;13.97;69.83
69214;BME280;56325;47.030;18.518;2023-04-24T04:37:28;99475.50;;;14.01;69.59
69214;BME280;56325;47.030;18.518;2023-04-24T04:40:09;99470.50;;;14.05;69.24
69214;BME280;56325;47.030;18.518;2023-04-24T04:42:45;99479.03;;;14.01;69.71
69214;BME280;56325;47.030;18.518;2023-04-24T04:45:20;99473.75;;;14.03;69.26
69214;BME280;56325;47.030;18.518;2023-04-24T04:47:58;99479.06;;;14.18;69.23
69214;BME280;56325;47.030;18.518;2023-04-24T04:50:35;99477.53;;;14.11;69.27
69214;BME280;56325;47.030;18.518;2023-04-24T04:53:12;99475.03;;;14.25;69.13
69214;BME280;56325;47.030;18.518;2023-04-24T04:55:47;99477.78;;;14.19;69.00
69214;BME280;56325;47.030;18.518;2023-04-24T04:58:21;99474.28;;;14.24;69.49
69214;BME280;56325;47.030;18.518;2023-04-24T05:00:56;99479.56;;;14.22;69.50
69214;BME280;56325;47.030;18.518;2023-04-24T05:03:31;99473.81;;;15.92;83.92
69214;BME280;56325;47.030;18.518;2023-04-24T05:06:07;99483.69;;;15.82;79.09
69214;BME280;56325;47.030;18.518;2023-04-24T05:08:43;99482.41;;;15.36;67.35
69214;BME280;56325;47.030;18.518;2023-04-24T05:11:20;99496.34;;;14.97;67.70
69214;BME280;56325;47.030;18.518;2023-04-24T05:13:55;99491.06;;;14.99;68.12
69214;BME280;56325;47.030;18.518;2023-04-24T05:16:30;99485.66;;;16.28;78.97
69214;BME280;56325;47.030;18.518;2023-04-24T05:19:05;99494.09;;;15.70;67.73
69214;BME280;56325;47.030;18.518;2023-04-24T05:21:40;99496.00;;;15.34;67.24
69214;BME280;56325;47.030;18.518;2023-04-24T05:24:16;99494.28;;;15.25;67.62
69214;BME280;56325;47.030;18.518;2023-04-24T05:26:51;99495.63;;;14.85;68.77
69214;BME280;56325;47.030;18.518;2023-04-24T05:29:26;99499.63;;;14.90;69.15
69214;BME280;56325;47.030;18.518;2023-04-24T05:32:01;99504.19;;;14.87;69.32
69214;BME280;56325;47.030;18.518;2023-04-24T05:34:35;99516.75;;;14.99;69.12
69214;BME280;56325;47.030;18.518;2023-04-24T05:37:10;99513.28;;;14.65;70.36
69214;BME280;56325;47.030;18.518;2023-04-24T05:39:46;99518.56;;;14.52;71.16
69214;BME280;56325;47.030;18.518;2023-04-24T05:42:20;99509.47;;;14.18;74.98
69214;BME280;56325;47.030;18.518;2023-04-24T05:44:55;99512.00;;;14.33;74.88
69214;BME280;56325;47.030;18.518;2023-04-24T05:47:31;99502.69;;;14.19;76.44
69214;BME280;56325;47.030;18.518;2023-04-24T05:50:07;99501.44;;;14.20;77.45
69214;BME280;56325;47.030;18.518;2023-04-24T05:52:42;99508.94;;;14.03;78.02
69214;BME280;56325;47.030;18.518;2023-04-24T05:55:18;99509.16;;;13.94;78.66
69214;BME280;56325;47.030;18.518;2023-04-24T05:57:53;99504.41;;;14.05;77.90
69214;BME280;56325;47.030;18.518;2023-04-24T06:02:54;99502.97;;;14.60;77.33
69214;BME280;56325;47.030;18.518;2023-04-24T06:05:30;99502.97;;;14.60;77.33
69214;BME280;56325;47.030;18.518;2023-04-24T06:08:06;99490.56;;;13.89;79.34
69214;BME280;56325;47.030;18.518;2023-04-24T06:10:41;99488.06;;;13.80;79.96
69214;BME280;56325;47.030;18.518;2023-04-24T06:13:15;99494.09;;;13.89;80.13
69214;BME280;56325;47.030;18.518;2023-04-24T06:15:52;99507.69;;;14.04;79.44
69214;BME280;56325;47.030;18.518;2023-04-24T06:18:28;99497.13;;;13.97;80.19
69214;BME280;56325;47.030;18.518;2023-04-24T06:21:03;99500.41;;;14.06;79.86
69214;BME280;56325;47.030;18.518;2023-04-24T06:23:38;99501.44;;;14.20;83.30
69214;BME280;56325;47.030;18.518;2023-04-24T06:26:14;99501.31;;;15.84;87.17
69214;BME280;56325;47.030;18.518;2023-04-24T06:28:48;99500.66;;;16.08;78.58
69214;BME280;56325;47.030;18.518;2023-04-24T06:31:24;99504.28;;;15.39;76.50
69214;BME280;56325;47.030;18.518;2023-04-24T06:34:00;99495.03;;;15.20;76.29
69214;BME280;56325;47.030;18.518;2023-04-24T06:36:35;99500.63;;;15.03;76.82
69214;BME280;56325;47.030;18.518;2023-04-24T06:39:10;99493.81;;;15.10;76.86
69214;BME280;56325;47.030;18.518;2023-04-24T06:41:45;99492.84;;;14.85;77.77
69214;BME280;56325;47.030;18.518;2023-04-24T06:44:23;99502.44;;;14.39;79.90
69214;BME280;56325;47.030;18.518;2023-04-24T06:46:58;99511.28;;;14.66;79.48
69214;BME280;56325;47.030;18.518;2023-04-24T06:49:34;99514.00;;;14.88;80.55
69214;BME280;56325;47.030;18.518;2023-04-24T06:52:08;99510.69;;;15.06;80.02
69214;BME280;56325;47.030;18.518;2023-04-24T06:54:43;99507.41;;;15.14;79.12
69214;BME280;56325;47.030;18.518;2023-04-24T06:57:18;99500.56;;;15.26;79.00
69214;BME280;56325;47.030;18.518;2023-04-24T06:59:54;99497.53;;;15.24;78.38
69214;BME280;56325;47.030;18.518;2023-04-24T07:02:28;99511.84;;;15.39;78.76
69214;BME280;56325;47.030;18.518;2023-04-24T07:05:05;99508.31;;;15.44;79.00
69214;BME280;56325;47.030;18.518;2023-04-24T07:07:41;99503.50;;;15.50;79.27
69214;BME280;56325;47.030;18.518;2023-04-24T07:10:17;99510.75;;;15.64;79.39
69214;BME280;56325;47.030;18.518;2023-04-24T07:12:51;99509.75;;;15.62;78.41
69214;BME280;56325;47.030;18.518;2023-04-24T07:15:26;99511.25;;;15.63;79.00
69214;BME280;56325;47.030;18.518;2023-04-24T07:18:01;99508.47;;;15.68;78.61
69214;BME280;56325;47.030;18.518;2023-04-24T07:20:39;99491.34;;;16.05;80.36
69214;BME280;56325;47.030;18.518;2023-04-24T07:23:14;99500.03;;;16.56;79.42
69214;BME280;56325;47.030;18.518;2023-04-24T07:25:48;99510.81;;;16.00;74.31
69214;BME280;56325;47.030;18.518;2023-04-24T07:28:23;99509.34;;;15.93;74.50
69214;BME280;56325;47.030;18.518;2023-04-24T07:30:58;99504.31;;;15.92;75.62
69214;BME280;56325;47.030;18.518;2023-04-24T07:33:34;99499.63;;;16.11;76.80
69214;BME280;56325;47.030;18.518;2023-04-24T07:36:11;99501.34;;;16.50;75.49
69214;BME280;56325;47.030;18.518;2023-04-24T07:38:49;99495.69;;;16.61;75.83
69214;BME280;56325;47.030;18.518;2023-04-24T07:41:24;99498.47;;;16.61;73.86
69214;BME280;56325;47.030;18.518;2023-04-24T07:44:01;99499.78;;;16.54;74.54
69214;BME280;56325;47.030;18.518;2023-04-24T07:46:35;99502.62;;;16.49;73.94
69214;BME280;56325;47.030;18.518;2023-04-24T07:49:10;99500.03;;;16.56;73.37
69214;BME280;56325;47.030;18.518;2023-04-24T07:51:49;99492.78;;;16.48;72.74
69214;BME280;56325;47.030;18.518;2023-04-24T07:54:24;99490.06;;;16.72;71.65
69214;BME280;56325;47.030;18.518;2023-04-24T07:56:58;99492.06;;;17.01;74.94
69214;BME280;56325;47.030;18.518;2023-04-24T07:59:33;99496.31;;;17.27;69.46
69214;BME280;56325;47.030;18.518;2023-04-24T08:02:07;99493.31;;;16.76;71.47
69214;BME280;56325;47.030;18.518;2023-04-24T08:04:43;99496.31;;;16.78;70.13
69214;BME280;56325;47.030;18.518;2023-04-24T08:07:20;99495.75;;;16.55;71.05
69214;BME280;56325;47.030;18.518;2023-04-24T08:09:55;99490.25;;;16.50;69.93
69214;BME280;56325;47.030;18.518;2023-04-24T08:12:29;99492.97;;;16.55;71.67
69214;BME280;56325;47.030;18.518;2023-04-24T08:15:05;99499.22;;;16.67;72.40
69214;BME280;56325;47.030;18.518;2023-04-24T08:17:39;99490.81;;;16.73;70.12
69214;BME280;56325;47.030;18.518;2023-04-24T08:20:14;99482.09;;;16.87;71.60
69214;BME280;56325;47.030;18.518;2023-04-24T08:22:50;99491.13;;;17.18;71.71
69214;BME280;56325;47.030;18.518;2023-04-24T08:25:25;99488.28;;;17.23;69.57
69214;BME280;56325;47.030;18.518;2023-04-24T08:27:59;99481.97;;;17.23;69.58
69214;BME280;56325;47.030;18.518;2023-04-24T08:30:34;99479.94;;;17.42;67.86
69214;BME280;56325;47.030;18.518;2023-04-24T08:33:08;99476.13;;;17.64;68.11
69214;BME280;56325;47.030;18.518;2023-04-24T08:35:43;99471.81;;;17.68;68.58
69214;BME280;56325;47.030;18.518;2023-04-24T08:38:18;99469.34;;;18.16;67.31
69214;BME280;56325;47.030;18.518;2023-04-24T08:40:53;99471.00;;;18.38;64.78
69214;BME280;56325;47.030;18.518;2023-04-24T08:43:28;99474.50;;;18.25;62.27
69214;BME280;56325;47.030;18.518;2023-04-24T08:46:04;99467.59;;;18.45;64.65
69214;BME280;56325;47.030;18.518;2023-04-24T08:48:44;99478.97;;;18.60;63.56
69214;BME280;56325;47.030;18.518;2023-04-24T08:51:19;99467.41;;;18.56;59.34
69214;BME280;56325;47.030;18.518;2023-04-24T08:53:57;99480.94;;;18.20;60.66
69214;BME280;56325;47.030;18.518;2023-04-24T08:56:33;99480.47;;;18.16;60.95
69214;BME280;56325;47.030;18.518;2023-04-24T08:59:11;99477.31;;;18.38;61.42
69214;BME280;56325;47.030;18.518;2023-04-24T09:01:46;99468.44;;;18.40;59.58
69214;BME280;56325;47.030;18.518;2023-04-24T09:04:24;99483.97;;;18.48;58.81
69214;BME280;56325;47.030;18.518;2023-04-24T09:07:00;99477.03;;;18.55;58.39
69214;BME280;56325;47.030;18.518;2023-04-24T09:09:38;99470.19;;;18.56;58.34
69214;BME280;56325;47.030;18.518;2023-04-24T09:12:14;99473.25;;;18.71;58.42
69214;BME280;56325;47.030;18.518;2023-04-24T09:14:49;99476.56;;;18.70;58.96
69214;BME280;56325;47.030;18.518;2023-04-24T09:17:25;99459.53;;;18.86;59.78
69214;BME280;56325;47.030;18.518;2023-04-24T09:20:02;99471.53;;;19.08;59.91
69214;BME280;56325;47.030;18.518;2023-04-24T09:22:38;99479.69;;;19.19;61.39
69214;BME280;56325;47.030;18.518;2023-04-24T09:25:14;99466.09;;;18.89;56.85
69214;BME280;56325;47.030;18.518;2023-04-24T09:27:50;99458.66;;;19.31;57.40
69214;BME280;56325;47.030;18.518;2023-04-24T09:30:28;99462.38;;;19.60;55.59
69214;BME280;56325;47.030;18.518;2023-04-24T09:33:13;99463.28;;;19.89;56.73
69214;BME280;56325;47.030;18.518;2023-04-24T09:35:49;99458.44;;;20.10;57.49
69214;BME280;56325;47.030;18.518;2023-04-24T09:38:33;99467.59;;;20.52;59.30
69214;BME280;56325;47.030;18.518;2023-04-24T09:41:13;99453.06;;;20.54;59.49
69214;BME280;56325;47.030;18.518;2023-04-24T09:43:48;99446.19;;;20.55;58.98
69214;BME280;56325;47.030;18.518;2023-04-24T09:46:29;99447.81;;;20.71;55.46
69214;BME280;56325;47.030;18.518;2023-04-24T09:49:09;99453.41;;;20.29;54.01
69214;BME280;56325;47.030;18.518;2023-04-24T09:51:44;99458.84;;;20.14;52.95
69214;BME280;56325;47.030;18.518;2023-04-24T09:54:20;99455.62;;;20.10;53.46
69214;BME280;56325;47.030;18.518;2023-04-24T09:56:57;99458.28;;;19.95;52.75
69214;BME280;56325;47.030;18.518;2023-04-24T09:59:33;99451.59;;;19.77;50.59
69214;BME280;56325;47.030;18.518;2023-04-24T10:02:17;99455.50;;;19.95;50.97
69214;BME280;56325;47.030;18.518;2023-04-24T10:04:56;99462.78;;;19.77;48.98
69214;BME280;56325;47.030;18.518;2023-04-24T10:07:33;99452.34;;;19.78;52.78
69214;BME280;56325;47.030;18.518;2023-04-24T10:10:09;99452.16;;;19.96;51.13
69214;BME280;56325;47.030;18.518;2023-04-24T10:12:45;99441.47;;;20.08;51.48
69214;BME280;56325;47.030;18.518;2023-04-24T10:15:20;99448.50;;;20.02;52.10
69214;BME280;56325;47.030;18.518;2023-04-24T10:17:55;99435.91;;;20.08;50.70
69214;BME280;56325;47.030;18.518;2023-04-24T10:20:35;99440.66;;;20.21;49.58
69214;BME280;56325;47.030;18.518;2023-04-24T10:23:09;99430.28;;;20.42;52.79
69214;BME280;56325;47.030;18.518;2023-04-24T10:25:45;99432.38;;;20.49;51.58
69214;BME280;56325;47.030;18.518;2023-04-24T10:28:21;99444.87;;;20.35;48.25
69214;BME280;56325;47.030;18.518;2023-04-24T10:30:57;99430.34;;;20.50;48.89
69214;BME280;56325;47.030;18.518;2023-04-24T10:33:32;99428.87;;;20.56;48.24
69214;BME280;56325;47.030;18.518;2023-04-24T10:36:08;99430.44;;;20.65;51.93
69214;BME280;56325;47.030;18.518;2023-04-24T10:38:45;99424.94;;;20.80;48.65
69214;BME280;56325;47.030;18.518;2023-04-24T10:41:25;99425.91;;;20.90;49.89
69214;BME280;56325;47.030;18.518;2023-04-24T10:44:07;99418.00;;;21.10;50.94
69214;BME280;56325;47.030;18.518;2023-04-24T10:46:44;99419.81;;;21.00;49.50
69214;BME280;56325;47.030;18.518;2023-04-24T10:49:27;99424.66;;;20.63;49.24
69214;BME280;56325;47.030;18.518;2023-04-24T10:52:03;99423.44;;;20.51;51.93
69214;BME280;56325;47.030;18.518;2023-04-24T10:54:44;99420.44;;;20.49;51.65
69214;BME280;56325;47.030;18.518;2023-04-24T10:57:28;99422.28;;;20.25;51.34
69214;BME280;56325;47.030;18.518;2023-04-24T11:00:25;99416.97;;;20.14;50.45
69214;BME280;56325;47.030;18.518;2023-04-24T11:03:04;99420.72;;;20.38;53.06
69214;BME280;56325;47.030;18.518;2023-04-24T11:06:06;99413.09;;;20.59;54.79
69214;BME280;56325;47.030;18.518;2023-04-24T11:08:44;99423.56;;;20.66;53.48
69214;BME280;56325;47.030;18.518;2023-04-24T11:11:18;99422.25;;;20.67;53.70
69214;BME280;56325;47.030;18.518;2023-04-24T11:14:03;99413.09;;;20.59;51.38
69214;BME280;56325;47.030;18.518;2023-04-24T11:16:44;99421.25;;;20.36;52.34
69214;BME280;56325;47.030;18.518;2023-04-24T11:19:21;99426.44;;;20.11;51.02
69214;BME280;56325;47.030;18.518;2023-04-24T11:21:59;99412.88;;;20.15;51.74
69214;BME280;56325;47.030;18.518;2023-04-24T11:24:39;99418.69;;;20.17;51.56
69214;BME280;56325;47.030;18.518;2023-04-24T11:27:16;99420.84;;;20.11;52.29
69214;BME280;56325;47.030;18.518;2023-04-24T11:29:59;99429.28;;;19.98;51.45
69214;BME280;56325;47.030;18.518;2023-04-24T11:32:37;99427.41;;;19.93;52.47
69214;BME280;56325;47.030;18.518;2023-04-24T11:35:15;99429.75;;;19.68;50.73
69214;BME280;56325;47.030;18.518;2023-04-24T11:37:52;99428.09;;;19.52;52.19
69214;BME280;56325;47.030;18.518;2023-04-24T11:40:29;99423.91;;;19.32;52.91
69214;BME280;56325;47.030;18.518;2023-04-24T11:43:04;99419.63;;;19.31;52.58
69214;BME280;56325;47.030;18.518;2023-04-24T11:45:48;99425.66;;;19.09;52.78
69214;BME280;56325;47.030;18.518;2023-04-24T11:48:24;99427.47;;;19.19;54.66
69214;BME280;56325;47.030;18.518;2023-04-24T11:51:01;99420.84;;;19.09;54.43
69214;BME280;56325;47.030;18.518;2023-04-24T11:53:36;99424.41;;;18.96;55.61
69214;BME280;56325;47.030;18.518;2023-04-24T11:56:11;99429.13;;;18.88;54.99
69214;BME280;56325;47.030;18.518;2023-04-24T11:58:45;99425.03;;;18.76;57.46
69214;BME280;56325;47.030;18.518;2023-04-24T14:02:59;99396.25;;;18.15;64.18
69214;BME280;56325;47.030;18.518;2023-04-24T14:05:35;99396.25;;;18.15;64.18
69214;BME280;56325;47.030;18.518;2023-04-24T14:08:10;99391.63;;;17.73;66.31
69214;BME280;56325;47.030;18.518;2023-04-24T14:10:45;99398.16;;;17.56;66.25
69214;BME280;56325;47.030;18.518;2023-04-24T14:13:20;99394.53;;;17.61;66.23
69214;BME280;56325;47.030;18.518;2023-04-24T14:15:55;99392.38;;;17.54;66.90
69214;BME280;56325;47.030;18.518;2023-04-24T14:18:31;99391.97;;;17.63;66.62
69214;BME280;56325;47.030;18.518;2023-04-24T14:21:06;99382.31;;;17.70;66.49
69214;BME280;56325;47.030;18.518;2023-04-24T14:23:40;99383.59;;;17.69;66.53
69214;BME280;56325;47.030;18.518;2023-04-24T14:26:15;99386.44;;;17.45;65.46
69214;BME280;56325;47.030;18.518;2023-04-24T14:28:50;99382.91;;;17.44;65.76
69214;BME280;56325;47.030;18.518;2023-04-24T14:31:39;99389.53;;;17.03;69.99
69214;BME280;56325;47.030;18.518;2023-04-24T14:34:15;99380.12;;;16.88;68.14
69214;BME280;56325;47.030;18.518;2023-04-24T14:36:50;99391.59;;;16.49;69.29
69214;BME280;56325;47.030;18.518;2023-04-24T14:39:24;99403.53;;;16.44;69.46
69214;BME280;56325;47.030;18.518;2023-04-24T14:41:59;99402.59;;;16.35;70.65
69214;BME280;56325;47.030;18.518;2023-04-24T14:44:33;99405.16;;;16.33;71.70
69214;BME280;56325;47.030;18.518;2023-04-24T14:47:08;99401.28;;;16.42;71.88
69214;BME280;56325;47.030;18.518;2023-04-24T14:49:44;99417.06;;;16.28;73.17
69214;BME280;56325;47.030;18.518;2023-04-24T14:52:20;99416.66;;;16.13;75.01
69214;BME280;56325;47.030;18.518;2023-04-24T14:54:55;99420.09;;;15.54;78.07
69214;BME280;56325;47.030;18.518;2023-04-24T14:57:29;99424.28;;;15.19;80.79
69214;BME280;56325;47.030;18.518;2023-04-24T15:00:05;99430.63;;;15.08;79.12
69214;BME280;56325;47.030;18.518;2023-04-24T15:02:42;99432.66;;;15.08;80.75
69214;BME280;56325;47.030;18.518;2023-04-24T15:05:19;99438.72;;;14.95;82.04
69214;BME280;56325;47.030;18.518;2023-04-24T15:07:55;99433.94;;;14.96;81.91
69214;BME280;56325;47.030;18.518;2023-04-24T15:10:30;99430.91;;;14.99;82.57
69214;BME280;56325;47.030;18.518;2023-04-24T15:13:04;99430.22;;;14.76;81.43
69214;BME280;56325;47.030;18.518;2023-04-24T15:15:39;99426.69;;;14.76;82.18
69214;BME280;56325;47.030;18.518;2023-04-24T15:18:13;99424.72;;;14.71;82.38
69214;BME280;56325;47.030;18.518;2023-04-24T15:20:49;99425.47;;;14.71;83.21
69214;BME280;56325;47.030;18.518;2023-04-24T15:23:24;99414.34;;;14.83;83.33
69214;BME280;56325;47.030;18.518;2023-04-24T15:25:58;99422.34;;;15.03;82.20
69214;BME280;56325;47.030;18.518;2023-04-24T15:28:34;99411.00;;;15.06;81.23
69214;BME280;56325;47.030;18.518;2023-04-24T15:31:08;99422.31;;;15.14;82.05
69214;BME280;56325;47.030;18.518;2023-04-24T15:33:43;99423.81;;;15.15;81.45
69214;BME280;56325;47.030;18.518;2023-04-24T15:36:20;99411.84;;;14.85;82.94
69214;BME280;56325;47.030;18.518;2023-04-24T15:38:55;99420.16;;;14.79;83.61
69214;BME280;56325;47.030;18.518;2023-04-24T15:41:29;99414.34;;;14.83;83.48
69214;BME280;56325;47.030;18.518;2023-04-24T15:44:04;99407.31;;;15.45;90.03
69214;BME280;56325;47.030;18.518;2023-04-24T15:46:39;99411.06;;;15.89;81.11
69214;BME280;56325;47.030;18.518;2023-04-24T15:49:13;99412.28;;;16.78;84.93
69214;BME280;56325;47.030;18.518;2023-04-24T15:51:49;99414.91;;;15.80;79.83
69214;BME280;56325;47.030;18.518;2023-04-24T15:54:24;99411.53;;;15.52;81.47
69214;BME280;56325;47.030;18.518;2023-04-24T15:56:59;99408.38;;;15.78;79.92
69214;BME280;56325;47.030;18.518;2023-04-24T15:59:34;99410.91;;;15.76;79.81
69214;BME280;56325;47.030;18.518;2023-04-24T16:02:09;99416.34;;;15.57;80.46
69214;BME280;56325;47.030;18.518;2023-04-24T16:04:51;99416.41;;;15.40;81.66
69214;BME280;56325;47.030;18.518;2023-04-24T16:07:28;99410.34;;;15.41;81.40
69214;BME280;56325;47.030;18.518;2023-04-24T16:10:03;99416.75;;;15.20;81.71
69214;BME280;56325;47.030;18.518;2023-04-24T16:12:37;99415.78;;;15.12;81.58
69214;BME280;56325;47.030;18.518;2023-04-24T16:15:13;99411.28;;;15.03;82.13
69214;BME280;56325;47.030;18.518;2023-04-24T16:17:49;99411.97;;;15.15;82.00
69214;BME280;56325;47.030;18.518;2023-04-24T16:20:24;99407.16;;;15.26;81.57
69214;BME280;56325;47.030;18.518;2023-04-24T16:23:00;99414.53;;;15.07;82.60
69214;BME280;56325;47.030;18.518;2023-04-24T16:25:42;99404.66;;;15.17;83.01
69214;BME280;56325;47.030;18.518;2023-04-24T16:28:17;99407.72;;;15.08;82.33
69214;BME280;56325;47.030;18.518;2023-04-24T16:30:52;99406.94;;;15.19;82.79
69214;BME280;56325;47.030;18.518;2023-04-24T16:33:26;99409.47;;;15.11;82.82
69214;BME280;56325;47.030;18.518;2023-04-24T16:36:01;99410.69;;;15.21;82.40
69214;BME280;56325;47.030;18.518;2023-04-24T16:38:40;99406.00;;;14.99;83.10
69214;BME280;56325;47.030;18.518;2023-04-24T16:41:15;99409.75;;;15.02;83.25
69214;BME280;56325;47.030;18.518;2023-04-24T16:43:50;99402.56;;;16.11;89.44